Time;durP1;ratioP1;P1;durP2;ratioP2;P2;SDS_P1;SDS_P2;PMS_P1;PMS_P2;Temp;Humidity;BMP_temperature;BMP_pressure;BME280_temperature;BME280_humidity;BME280_pressure;Samples;Min_cycle;Max_cycle;Signal;HPM_P1;HPM_P2
2022/04/30 00:00:30;;;;;;;;;;;9.60;70.00;;;;;;5028277;28;19913;-75
2022/04/30 00:02:59;;;;;;;;;;;9.60;70.10;;;;;;5028865;28;20570;-75
2022/04/30 00:05:32;;;;;;;;;;;9.60;70.30;;;;;;5029074;28;20569;-75
2022/04/30 00:07:57;;;;;;;;;;;9.60;70.50;;;;;;5026021;28;19913;-75
2022/04/30 00:10:23;;;;;;;;;;;9.70;70.50;;;;;;5025220;28;20259;-75
2022/04/30 00:12:49;;;;;;;;;;;9.60;70.00;;;;;;5030857;28;19921;-75
2022/04/30 00:15:14;;;;;;;;;;;9.40;70.30;;;;;;5030303;28;19921;-75
2022/04/30 00:17:40;;;;;;;;;;;9.50;71.10;;;;;;5026108;28;19932;-75
2022/04/30 00:20:06;;;;;;;;;;;9.60;70.90;;;;;;5027687;28;20362;-75
2022/04/30 00:22:31;;;;;;;;;;;9.60;70.70;;;;;;5026702;28;19912;-75
2022/04/30 00:24:57;;;;;;;;;;;9.50;71.20;;;;;;5027422;28;19992;-75
2022/04/30 00:27:22;;;;;;;;;;;9.50;70.50;;;;;;5028917;28;19920;-75
2022/04/30 00:29:48;;;;;;;;;;;9.50;70.80;;;;;;5026523;28;19932;-75
2022/04/30 00:32:14;;;;;;;;;;;9.40;70.60;;;;;;5029504;28;19917;-75
2022/04/30 00:34:40;;;;;;;;;;;9.30;70.50;;;;;;5025937;28;19913;-75
2022/04/30 00:37:05;;;;;;;;;;;9.20;70.90;;;;;;5026627;28;20332;-75
2022/04/30 00:39:32;;;;;;;;;;;9.20;70.80;;;;;;5026451;28;19924;-75
2022/04/30 00:41:57;;;;;;;;;;;9.10;71.10;;;;;;5021980;28;20388;-75
2022/04/30 00:44:23;;;;;;;;;;;9.10;71.20;;;;;;5045756;28;19913;-75
2022/04/30 00:46:48;;;;;;;;;;;9.10;71.40;;;;;;5025396;28;20372;-75
2022/04/30 00:49:14;;;;;;;;;;;9.10;71.00;;;;;;5028439;28;20282;-75
2022/04/30 00:51:40;;;;;;;;;;;9.10;71.30;;;;;;5026055;28;19917;-76
2022/04/30 00:54:07;;;;;;;;;;;9.10;71.10;;;;;;5021978;28;19918;-76
2022/04/30 00:56:33;;;;;;;;;;;8.90;71.80;;;;;;5028219;28;19975;-75
2022/04/30 00:59:01;;;;;;;;;;;9.00;71.70;;;;;;5020851;28;20362;-75
2022/04/30 01:01:26;;;;;;;;;;;8.90;72.00;;;;;;5027332;28;19959;-76
2022/04/30 01:03:52;;;;;;;;;;;8.80;72.30;;;;;;5027223;28;19956;-75
2022/04/30 01:06:21;;;;;;;;;;;8.70;72.80;;;;;;5025222;28;19921;-75
2022/04/30 01:08:48;;;;;;;;;;;8.70;73.00;;;;;;5027073;28;19917;-75
2022/04/30 01:11:13;;;;;;;;;;;8.70;72.90;;;;;;5024494;28;19925;-75
2022/04/30 01:13:39;;;;;;;;;;;8.80;72.40;;;;;;5032906;28;19913;-76
2022/04/30 01:16:06;;;;;;;;;;;8.70;72.50;;;;;;5026008;28;20015;-76
2022/04/30 01:18:35;;;;;;;;;;;8.60;72.90;;;;;;5025472;28;19952;-75
2022/04/30 01:21:03;;;;;;;;;;;8.60;73.40;;;;;;5028161;28;19992;-75
2022/04/30 01:23:33;;;;;;;;;;;8.60;73.00;;;;;;5023878;28;19963;-75
2022/04/30 01:26:00;;;;;;;;;;;8.60;73.70;;;;;;5026038;28;19913;-75
2022/04/30 01:28:25;;;;;;;;;;;8.60;73.40;;;;;;5031851;28;20534;-75
2022/04/30 01:30:51;;;;;;;;;;;8.50;73.50;;;;;;5026799;28;20011;-75
2022/04/30 01:38:45;;;;;;;;;;;8.60;73.20;;;;;;5027280;28;19932;-75
2022/04/30 01:41:11;;;;;;;;;;;8.60;73.80;;;;;;5029296;28;19917;-75
2022/04/30 01:43:36;;;;;;;;;;;8.40;73.60;;;;;;5029160;28;19920;-75
2022/04/30 01:46:02;;;;;;;;;;;8.20;74.60;;;;;;5057234;28;19944;-75
2022/04/30 01:48:28;;;;;;;;;;;8.30;75.00;;;;;;5028894;28;20357;-75
2022/04/30 01:50:54;;;;;;;;;;;8.20;75.00;;;;;;5023498;28;19935;-75
2022/04/30 01:53:20;;;;;;;;;;;8.30;74.70;;;;;;5025438;28;19924;-76
2022/04/30 01:55:46;;;;;;;;;;;8.50;73.70;;;;;;5026757;28;19921;-76
2022/04/30 01:58:11;;;;;;;;;;;8.40;73.70;;;;;;5024515;28;19917;-75
2022/04/30 02:00:37;;;;;;;;;;;8.10;74.30;;;;;;5027535;28;19914;-75
2022/04/30 02:03:06;;;;;;;;;;;8.00;74.50;;;;;;5055323;28;20036;-75
2022/04/30 02:05:32;;;;;;;;;;;8.10;74.20;;;;;;5027703;28;19921;-76
2022/04/30 02:08:00;;;;;;;;;;;8.10;74.70;;;;;;5024880;28;20004;-75
2022/04/30 02:10:26;;;;;;;;;;;8.10;74.50;;;;;;5024231;28;20239;-75
2022/04/30 02:12:52;;;;;;;;;;;8.10;74.90;;;;;;5025677;28;19924;-75
2022/04/30 02:15:18;;;;;;;;;;;8.00;74.90;;;;;;5024437;28;19925;-75
2022/04/30 02:17:46;;;;;;;;;;;7.90;75.20;;;;;;5025636;28;19912;-75
2022/04/30 02:20:18;;;;;;;;;;;8.00;75.20;;;;;;5043091;28;19913;-75
2022/04/30 02:22:44;;;;;;;;;;;7.90;75.30;;;;;;5021338;28;19957;-75
2022/04/30 02:25:11;;;;;;;;;;;7.70;75.50;;;;;;5025039;28;19944;-76
2022/04/30 02:27:38;;;;;;;;;;;7.60;76.40;;;;;;5023732;28;19924;-75
2022/04/30 02:30:05;;;;;;;;;;;7.60;76.50;;;;;;5019206;28;20103;-76
2022/04/30 02:32:41;;;;;;;;;;;7.60;76.90;;;;;;5025431;28;19913;-75
2022/04/30 02:35:07;;;;;;;;;;;7.50;77.00;;;;;;5025031;28;19983;-75
2022/04/30 02:37:32;;;;;;;;;;;7.50;76.40;;;;;;5028068;28;19921;-75
2022/04/30 02:39:57;;;;;;;;;;;7.60;76.60;;;;;;5045376;28;19917;-75
2022/04/30 02:42:23;;;;;;;;;;;7.50;76.80;;;;;;5021769;28;19993;-76
2022/04/30 02:44:48;;;;;;;;;;;7.50;76.60;;;;;;5026373;28;19917;-76
2022/04/30 02:47:14;;;;;;;;;;;7.50;76.70;;;;;;5026286;28;20348;-76
2022/04/30 02:49:39;;;;;;;;;;;7.40;77.10;;;;;;5024826;28;19917;-76
2022/04/30 02:52:05;;;;;;;;;;;7.50;76.60;;;;;;5024464;28;19921;-76
2022/04/30 02:54:34;;;;;;;;;;;7.40;77.10;;;;;;5047990;28;19913;-75
2022/04/30 02:57:00;;;;;;;;;;;7.30;77.40;;;;;;5022131;28;20448;-76
2022/04/30 03:02:09;;;;;;;;;;;7.10;78.10;;;;;;5022177;28;20258;-75
2022/04/30 03:04:35;;;;;;;;;;;7.10;78.20;;;;;;5026233;28;19913;-76
2022/04/30 03:07:00;;;;;;;;;;;7.00;78.30;;;;;;5023107;28;20773;-76
2022/04/30 03:09:26;;;;;;;;;;;7.00;78.70;;;;;;5026302;28;19963;-76
2022/04/30 03:11:51;;;;;;;;;;;7.00;78.90;;;;;;5045756;28;19913;-76
2022/04/30 03:14:17;;;;;;;;;;;7.00;78.80;;;;;;5026934;28;20060;-76
2022/04/30 03:22:12;;;;;;;;;;;7.00;79.30;;;;;;5021548;28;19928;-76
2022/04/30 03:24:38;;;;;;;;;;;6.90;79.40;;;;;;5021805;28;19975;-76
2022/04/30 03:27:03;;;;;;;;;;;7.00;79.10;;;;;;5021574;28;20654;-76
2022/04/30 03:29:29;;;;;;;;;;;6.80;79.20;;;;;;5023948;28;20250;-76
2022/04/30 03:31:56;;;;;;;;;;;6.90;79.30;;;;;;5027711;28;19913;-76
2022/04/30 03:34:21;;;;;;;;;;;6.80;79.60;;;;;;5029226;28;19927;-75
2022/04/30 03:36:47;;;;;;;;;;;6.80;79.80;;;;;;5029772;28;19943;-76
2022/04/30 03:39:12;;;;;;;;;;;6.90;79.60;;;;;;5026710;28;20013;-76
2022/04/30 03:41:38;;;;;;;;;;;6.90;79.40;;;;;;5029344;28;19940;-76
2022/04/30 03:44:04;;;;;;;;;;;6.80;79.60;;;;;;5031158;28;19920;-76
2022/04/30 03:46:29;;;;;;;;;;;6.80;79.80;;;;;;5031468;28;19917;-76
2022/04/30 03:48:56;;;;;;;;;;;6.60;80.10;;;;;;5028383;28;19913;-76
2022/04/30 03:51:24;;;;;;;;;;;6.60;80.30;;;;;;5026656;28;19996;-75
2022/04/30 03:53:50;;;;;;;;;;;6.60;80.30;;;;;;5026302;28;19921;-76
2022/04/30 03:56:19;;;;;;;;;;;6.70;80.20;;;;;;5031303;28;20266;-76
2022/04/30 03:58:47;;;;;;;;;;;6.60;80.20;;;;;;5031238;28;19997;-75
2022/04/30 04:01:13;;;;;;;;;;;6.70;79.90;;;;;;5025267;28;20397;-76
2022/04/30 04:03:39;;;;;;;;;;;6.80;80.40;;;;;;5033876;28;20004;-76
2022/04/30 04:06:06;;;;;;;;;;;6.70;80.20;;;;;;5028188;28;20011;-75
2022/04/30 04:08:31;;;;;;;;;;;6.80;79.80;;;;;;5025899;28;19913;-76
2022/04/30 04:10:56;;;;;;;;;;;6.80;79.80;;;;;;5026295;28;20892;-76
2022/04/30 04:18:55;;;;;;;;;;;6.70;80.00;;;;;;5022990;28;19960;-76
2022/04/30 04:21:21;;;;;;;;;;;6.80;80.10;;;;;;5026827;28;19921;-76
2022/04/30 04:26:31;;;;;;;;;;;6.90;79.60;;;;;;5028350;28;19959;-76
2022/04/30 04:28:56;;;;;;;;;;;6.90;79.00;;;;;;5023794;28;19948;-76
2022/04/30 04:31:22;;;;;;;;;;;6.80;79.90;;;;;;5026450;28;19989;-76
2022/04/30 04:33:48;;;;;;;;;;;6.70;80.30;;;;;;5028007;28;19920;-76
2022/04/30 04:36:14;;;;;;;;;;;6.70;80.70;;;;;;5027686;28;19913;-76
2022/04/30 04:38:39;;;;;;;;;;;6.60;80.30;;;;;;5022108;28;19917;-76
2022/04/30 04:41:04;;;;;;;;;;;6.60;80.40;;;;;;5025786;28;19921;-75
2022/04/30 04:43:30;;;;;;;;;;;6.50;80.60;;;;;;5026155;28;19952;-76
2022/04/30 04:45:55;;;;;;;;;;;6.50;80.60;;;;;;5027132;28;19949;-76
2022/04/30 04:48:21;;;;;;;;;;;6.50;80.60;;;;;;5056229;28;19963;-75
2022/04/30 04:50:46;;;;;;;;;;;6.50;81.00;;;;;;5023146;28;20348;-76
2022/04/30 04:53:12;;;;;;;;;;;6.60;80.80;;;;;;5026232;28;19927;-76
2022/04/30 04:55:38;;;;;;;;;;;6.60;80.70;;;;;;5028421;28;19913;-75
2022/04/30 04:58:03;;;;;;;;;;;6.70;80.50;;;;;;5051615;28;19919;-75
2022/04/30 05:00:29;;;;;;;;;;;6.80;80.40;;;;;;5042373;28;20015;-76
2022/04/30 05:02:55;;;;;;;;;;;6.70;80.10;;;;;;5026463;28;19913;-75
2022/04/30 05:05:21;;;;;;;;;;;6.70;80.70;;;;;;5027468;28;19921;-76
2022/04/30 05:07:46;;;;;;;;;;;6.80;81.10;;;;;;5027016;28;19917;-76
2022/04/30 05:10:11;;;;;;;;;;;6.80;80.60;;;;;;5024461;28;19991;-76
2022/04/30 05:12:37;;;;;;;;;;;6.80;80.60;;;;;;5027832;28;19913;-76
2022/04/30 05:15:03;;;;;;;;;;;7.00;79.60;;;;;;5057214;28;19917;-76
2022/04/30 05:17:28;;;;;;;;;;;7.00;79.70;;;;;;5028310;28;19913;-76
2022/04/30 05:19:54;;;;;;;;;;;6.80;80.00;;;;;;5026547;28;19989;-76
2022/04/30 05:22:20;;;;;;;;;;;6.90;80.20;;;;;;5024130;28;19912;-76
2022/04/30 05:24:45;;;;;;;;;;;6.90;80.10;;;;;;5027580;28;19998;-75
2022/04/30 05:27:11;;;;;;;;;;;6.80;80.30;;;;;;5026590;28;20273;-75
2022/04/30 05:29:36;;;;;;;;;;;6.90;80.50;;;;;;5027811;28;19936;-76
2022/04/30 05:32:02;;;;;;;;;;;7.00;80.30;;;;;;5031451;28;19987;-76
2022/04/30 05:34:28;;;;;;;;;;;7.10;79.70;;;;;;5027919;28;19928;-76
2022/04/30 05:36:53;;;;;;;;;;;7.30;79.40;;;;;;5025179;28;19935;-76
2022/04/30 05:39:19;;;;;;;;;;;7.30;78.90;;;;;;5025485;28;19913;-76
2022/04/30 05:41:46;;;;;;;;;;;7.50;79.40;;;;;;5032712;28;19920;-76
2022/04/30 05:44:12;;;;;;;;;;;7.60;79.00;;;;;;5023433;28;19920;-76
2022/04/30 05:46:37;;;;;;;;;;;7.90;78.30;;;;;;5027734;28;19917;-76
2022/04/30 05:49:03;;;;;;;;;;;8.00;76.70;;;;;;5018433;28;19947;-76
2022/04/30 05:51:28;;;;;;;;;;;8.00;76.70;;;;;;5025178;28;19932;-76
2022/04/30 05:53:54;;;;;;;;;;;8.10;76.50;;;;;;5018224;28;19928;-76
2022/04/30 05:56:19;;;;;;;;;;;8.20;76.30;;;;;;5025898;28;20326;-75
2022/04/30 05:58:45;;;;;;;;;;;8.50;76.00;;;;;;5055558;28;19909;-76
2022/04/30 06:01:10;;;;;;;;;;;8.70;75.00;;;;;;5017959;28;20008;-76
2022/04/30 06:03:36;;;;;;;;;;;8.70;74.90;;;;;;5020777;28;20489;-76
2022/04/30 06:06:01;;;;;;;;;;;8.70;74.60;;;;;;5019182;28;19917;-76
2022/04/30 06:08:27;;;;;;;;;;;8.90;74.10;;;;;;5023431;28;20369;-76
2022/04/30 06:10:52;;;;;;;;;;;9.30;73.40;;;;;;5023655;28;20361;-76
2022/04/30 06:13:18;;;;;;;;;;;9.40;73.20;;;;;;5020115;28;19921;-76
2022/04/30 06:15:43;;;;;;;;;;;9.60;71.90;;;;;;5023967;28;19916;-76
2022/04/30 06:18:09;;;;;;;;;;;9.70;72.50;;;;;;5026498;28;19921;-76
2022/04/30 06:20:34;;;;;;;;;;;10.00;70.80;;;;;;5017499;28;19967;-76
2022/04/30 06:23:00;;;;;;;;;;;9.90;71.30;;;;;;5014406;28;19988;-76
2022/04/30 06:25:26;;;;;;;;;;;9.70;72.20;;;;;;5017669;28;19922;-76
2022/04/30 06:27:51;;;;;;;;;;;9.50;71.90;;;;;;5051299;28;20476;-77
2022/04/30 06:30:17;;;;;;;;;;;9.10;73.20;;;;;;5019120;28;19979;-76
2022/04/30 06:32:42;;;;;;;;;;;8.70;74.20;;;;;;5023975;28;19924;-77
2022/04/30 06:35:08;;;;;;;;;;;8.50;75.60;;;;;;5020005;28;19921;-77
2022/04/30 06:37:34;;;;;;;;;;;8.50;76.60;;;;;;5027396;28;19923;-77
2022/04/30 06:39:59;;;;;;;;;;;8.40;76.70;;;;;;5043114;28;20344;-77
2022/04/30 06:42:25;;;;;;;;;;;8.40;76.60;;;;;;5035826;28;19913;-77
2022/04/30 06:44:51;;;;;;;;;;;8.40;77.00;;;;;;5034044;28;20274;-77
2022/04/30 06:47:17;;;;;;;;;;;8.40;77.70;;;;;;5026346;28;19913;-77
2022/04/30 06:49:43;;;;;;;;;;;8.40;77.60;;;;;;5028521;28;20016;-77
2022/04/30 06:52:08;;;;;;;;;;;8.50;77.50;;;;;;5023828;28;20012;-77
2022/04/30 06:57:21;;;;;;;;;;;8.50;77.60;;;;;;5026166;28;20051;-77
2022/04/30 06:59:51;;;;;;;;;;;8.60;77.40;;;;;;5026004;28;19957;-77
2022/04/30 07:02:22;;;;;;;;;;;8.90;76.90;;;;;;5025236;28;20319;-77
2022/04/30 07:04:50;;;;;;;;;;;9.30;77.20;;;;;;5041354;28;19913;-77
2022/04/30 07:07:15;;;;;;;;;;;9.60;75.80;;;;;;5022362;28;20258;-77
2022/04/30 07:09:41;;;;;;;;;;;9.80;74.90;;;;;;5030337;28;19917;-77
2022/04/30 07:12:07;;;;;;;;;;;9.80;73.00;;;;;;5024573;28;19932;-77
2022/04/30 07:14:35;;;;;;;;;;;9.80;72.80;;;;;;5033778;28;19960;-77
2022/04/30 07:17:05;;;;;;;;;;;9.60;73.70;;;;;;5029040;28;20385;-77
2022/04/30 07:19:30;;;;;;;;;;;9.80;74.30;;;;;;5030040;28;19913;-77
2022/04/30 07:21:56;;;;;;;;;;;10.00;73.30;;;;;;5032133;28;19994;-77
2022/04/30 07:24:21;;;;;;;;;;;10.10;72.50;;;;;;5035333;28;19917;-77
2022/04/30 07:26:47;;;;;;;;;;;10.00;71.80;;;;;;5027019;28;19913;-77
2022/04/30 07:29:12;;;;;;;;;;;10.10;72.50;;;;;;5029317;28;19999;-77
2022/04/30 07:31:39;;;;;;;;;;;10.30;72.20;;;;;;5028560;28;20022;-77
2022/04/30 07:34:04;;;;;;;;;;;10.30;71.90;;;;;;5027584;28;19917;-76
2022/04/30 07:36:30;;;;;;;;;;;10.10;71.20;;;;;;5026366;28;19979;-77
2022/04/30 07:38:55;;;;;;;;;;;10.00;71.10;;;;;;5028824;28;19920;-76
2022/04/30 07:41:21;;;;;;;;;;;10.00;71.20;;;;;;5027774;28;19921;-77
2022/04/30 07:43:47;;;;;;;;;;;9.90;70.50;;;;;;5029456;28;19932;-76
2022/04/30 07:46:12;;;;;;;;;;;9.90;70.10;;;;;;5040614;28;20007;-76
2022/04/30 07:48:38;;;;;;;;;;;9.80;69.50;;;;;;5028354;28;19913;-76
2022/04/30 07:51:13;;;;;;;;;;;9.70;69.80;;;;;;5034061;28;19921;-76
2022/04/30 07:53:38;;;;;;;;;;;9.50;69.20;;;;;;5027363;28;19917;-77
2022/04/30 07:56:04;;;;;;;;;;;9.50;70.30;;;;;;5029549;28;19913;-76
2022/04/30 07:58:29;;;;;;;;;;;9.60;70.20;;;;;;5028216;28;20016;-77
2022/04/30 08:00:55;;;;;;;;;;;9.50;70.20;;;;;;5026450;28;19909;-77
2022/04/30 08:03:21;;;;;;;;;;;9.50;70.20;;;;;;5027621;28;19913;-76
2022/04/30 08:05:46;;;;;;;;;;;9.70;69.10;;;;;;5027560;28;19947;-78
2022/04/30 08:08:12;;;;;;;;;;;9.80;66.90;;;;;;5026552;28;19913;-79
2022/04/30 08:10:37;;;;;;;;;;;9.90;66.10;;;;;;5023186;28;19932;-78
2022/04/30 08:13:03;;;;;;;;;;;10.00;67.00;;;;;;5026765;28;20257;-78
2022/04/30 08:15:28;;;;;;;;;;;10.30;66.60;;;;;;5027843;28;19974;-78
2022/04/30 08:17:54;;;;;;;;;;;10.30;64.70;;;;;;5029408;28;19917;-78
2022/04/30 08:20:21;;;;;;;;;;;10.40;64.70;;;;;;5015452;28;19913;-78
2022/04/30 08:22:46;;;;;;;;;;;10.50;63.40;;;;;;5019925;28;19917;-78
2022/04/30 08:25:12;;;;;;;;;;;10.50;62.80;;;;;;5029487;28;20251;-78
2022/04/30 08:27:37;;;;;;;;;;;10.60;62.90;;;;;;5020562;28;19913;-78
2022/04/30 08:30:03;;;;;;;;;;;10.80;63.50;;;;;;5020669;28;19925;-78
2022/04/30 08:32:29;;;;;;;;;;;11.10;63.40;;;;;;5026190;28;19916;-81
2022/04/30 08:34:54;;;;;;;;;;;11.10;61.90;;;;;;5048744;28;19914;-78
2022/04/30 08:37:20;;;;;;;;;;;10.90;63.10;;;;;;5043776;28;20445;-80
2022/04/30 08:39:46;;;;;;;;;;;10.90;63.40;;;;;;5024188;28;20028;-79
2022/04/30 08:42:13;;;;;;;;;;;10.80;61.90;;;;;;5020373;28;19971;-78
2022/04/30 08:44:38;;;;;;;;;;;10.60;62.30;;;;;;5029688;28;19921;-78
2022/04/30 08:47:04;;;;;;;;;;;10.70;60.70;;;;;;5027880;28;20361;-77
2022/04/30 08:49:33;;;;;;;;;;;10.60;59.90;;;;;;5023016;28;20063;-77
2022/04/30 08:51:59;;;;;;;;;;;10.60;60.40;;;;;;5016311;28;19925;-76
2022/04/30 08:54:24;;;;;;;;;;;10.60;61.20;;;;;;5014337;28;19913;-76
2022/04/30 08:56:55;;;;;;;;;;;10.60;60.00;;;;;;5014540;28;19921;-77
2022/04/30 08:59:20;;;;;;;;;;;10.50;59.10;;;;;;5018616;28;19960;-76
2022/04/30 09:01:50;;;;;;;;;;;10.50;59.50;;;;;;5020280;28;19975;-77
2022/04/30 09:04:15;;;;;;;;;;;10.60;58.90;;;;;;5023204;28;19913;-79
2022/04/30 09:06:48;;;;;;;;;;;10.70;60.80;;;;;;5012324;28;19979;-79
2022/04/30 09:09:29;;;;;;;;;;;10.60;59.30;;;;;;5017490;28;19921;-78
2022/04/30 09:12:15;;;;;;;;;;;10.70;60.50;;;;;;5024460;28;20015;-81
2022/04/30 09:14:41;;;;;;;;;;;11.00;61.30;;;;;;5028763;28;19913;-80
2022/04/30 09:17:08;;;;;;;;;;;11.20;58.50;;;;;;5024160;28;19917;-80
2022/04/30 09:19:50;;;;;;;;;;;11.30;59.80;;;;;;5059419;28;19914;-81
2022/04/30 09:22:16;;;;;;;;;;;11.40;59.70;;;;;;5031269;28;19917;-79
2022/04/30 09:24:48;;;;;;;;;;;11.50;58.30;;;;;;5027440;28;19932;-81
2022/04/30 09:27:17;;;;;;;;;;;11.50;58.70;;;;;;5029789;28;20312;-80
2022/04/30 09:29:42;;;;;;;;;;;11.50;58.40;;;;;;5053682;28;19914;-79
2022/04/30 09:32:08;;;;;;;;;;;11.30;56.80;;;;;;5067905;28;19925;-78
2022/04/30 09:37:45;;;;;;;;;;;11.30;56.50;;;;;;5020856;28;19971;-79
2022/04/30 09:40:14;;;;;;;;;;;11.40;56.80;;;;;;5024135;28;19917;-79
2022/04/30 09:42:40;;;;;;;;;;;11.30;57.40;;;;;;5013917;28;20346;-79
2022/04/30 09:45:06;;;;;;;;;;;11.30;57.10;;;;;;5027138;28;19924;-79
2022/04/30 09:47:33;;;;;;;;;;;11.20;57.40;;;;;;5051713;28;19917;-79
2022/04/30 09:55:30;;;;;;;;;;;11.30;58.90;;;;;;5019987;28;20269;-77
2022/04/30 09:57:56;;;;;;;;;;;11.40;58.80;;;;;;5012591;28;19941;-78
2022/04/30 10:00:22;;;;;;;;;;;11.40;58.10;;;;;;5024030;28;19917;-77
2022/04/30 10:02:52;;;;;;;;;;;11.50;57.90;;;;;;5023711;28;20603;-77
2022/04/30 10:05:18;;;;;;;;;;;11.60;59.20;;;;;;5023418;28;19917;-77
2022/04/30 10:07:44;;;;;;;;;;;11.90;56.50;;;;;;5025751;28;19975;-77
2022/04/30 10:10:15;;;;;;;;;;;11.90;57.30;;;;;;5025977;28;20400;-77
2022/04/30 10:12:44;;;;;;;;;;;12.10;55.30;;;;;;5016882;28;20385;-77
2022/04/30 10:15:13;;;;;;;;;;;12.20;55.80;;;;;;5019150;28;19997;-77
2022/04/30 10:17:42;;;;;;;;;;;12.30;54.00;;;;;;5020637;28;19917;-78
2022/04/30 10:20:19;;;;;;;;;;;12.40;54.60;;;;;;5021609;28;20297;-78
2022/04/30 10:22:55;;;;;;;;;;;12.50;54.60;;;;;;5023127;28;20437;-77
2022/04/30 10:25:31;;;;;;;;;;;12.40;53.00;;;;;;5024955;28;20594;-78
2022/04/30 10:27:56;;;;;;;;;;;12.20;54.80;;;;;;5045215;28;19935;-79
2022/04/30 10:30:27;;;;;;;;;;;12.30;54.60;;;;;;5027599;28;20012;-78
2022/04/30 10:33:00;;;;;;;;;;;12.20;53.90;;;;;;5027987;28;20008;-79
2022/04/30 10:35:30;;;;;;;;;;;12.10;54.90;;;;;;5027888;28;21122;-79
2022/04/30 10:38:04;;;;;;;;;;;12.10;55.50;;;;;;5030539;28;19948;-79
2022/04/30 10:40:36;;;;;;;;;;;12.10;54.40;;;;;;5059228;28;20700;-78
2022/04/30 10:43:02;;;;;;;;;;;12.10;55.20;;;;;;5031408;28;20015;-78
2022/04/30 10:45:28;;;;;;;;;;;12.10;55.40;;;;;;5031153;28;20778;-78
2022/04/30 10:47:55;;;;;;;;;;;12.30;55.50;;;;;;5029910;28;19974;-78
2022/04/30 10:50:21;;;;;;;;;;;12.30;56.10;;;;;;5031130;28;20431;-78
2022/04/30 10:52:47;;;;;;;;;;;12.30;54.10;;;;;;5045512;28;19920;-77
2022/04/30 10:55:12;;;;;;;;;;;12.50;54.20;;;;;;5032674;28;19913;-78
2022/04/30 10:57:41;;;;;;;;;;;12.60;55.00;;;;;;5028399;28;20255;-77
2022/04/30 11:00:07;;;;;;;;;;;12.70;54.50;;;;;;5030920;28;19986;-78
2022/04/30 11:02:32;;;;;;;;;;;12.90;54.50;;;;;;5028500;28;19995;-78
2022/04/30 11:04:59;;;;;;;;;;;12.90;51.60;;;;;;5031771;28;19921;-78
2022/04/30 11:07:26;;;;;;;;;;;12.70;52.40;;;;;;5031998;28;19920;-79
2022/04/30 11:09:51;;;;;;;;;;;12.50;52.30;;;;;;5029726;28;20408;-78
2022/04/30 11:12:17;;;;;;;;;;;12.50;53.00;;;;;;5029214;28;19917;-78
2022/04/30 11:14:46;;;;;;;;;;;12.60;53.10;;;;;;5057998;28;20009;-79
2022/04/30 11:17:11;;;;;;;;;;;12.80;53.20;;;;;;5032830;28;20551;-78
2022/04/30 11:19:43;;;;;;;;;;;12.90;53.70;;;;;;5031687;28;19917;-78
2022/04/30 11:22:09;;;;;;;;;;;12.80;52.70;;;;;;5030399;28;19917;-78
2022/04/30 11:24:35;;;;;;;;;;;12.50;52.50;;;;;;5033415;28;19984;-78
2022/04/30 11:27:03;;;;;;;;;;;12.40;52.90;;;;;;5032247;28;19913;-78
2022/04/30 11:29:29;;;;;;;;;;;12.40;51.40;;;;;;5026416;28;20011;-78
2022/04/30 11:31:55;;;;;;;;;;;12.80;52.30;;;;;;5030904;28;20342;-78
2022/04/30 11:34:20;;;;;;;;;;;13.00;51.60;;;;;;5025673;28;19963;-78
2022/04/30 11:36:47;;;;;;;;;;;13.20;51.50;;;;;;5024607;28;19928;-79
2022/04/30 11:39:13;;;;;;;;;;;13.20;50.30;;;;;;5031442;28;19920;-79
2022/04/30 11:41:39;;;;;;;;;;;13.30;50.70;;;;;;5031957;28;19919;-79
2022/04/30 11:44:05;;;;;;;;;;;13.30;50.10;;;;;;5026325;28;20349;-79
2022/04/30 11:46:30;;;;;;;;;;;13.40;52.10;;;;;;5035099;28;19924;-79
2022/04/30 11:48:56;;;;;;;;;;;13.30;51.50;;;;;;5028223;28;19921;-79
2022/04/30 11:51:23;;;;;;;;;;;13.20;53.10;;;;;;5033240;28;20014;-79
2022/04/30 11:53:48;;;;;;;;;;;13.20;51.30;;;;;;5033743;28;20033;-79
2022/04/30 11:56:14;;;;;;;;;;;13.30;52.20;;;;;;5026781;28;20011;-79
2022/04/30 11:58:43;;;;;;;;;;;13.30;51.10;;;;;;5033004;28;20397;-79
2022/04/30 12:01:19;;;;;;;;;;;13.40;51.20;;;;;;5035816;28;19964;-78
2022/04/30 12:03:44;;;;;;;;;;;13.50;49.40;;;;;;5035216;28;19985;-78
2022/04/30 12:06:10;;;;;;;;;;;13.70;50.60;;;;;;5032598;28;19952;-79
2022/04/30 12:08:35;;;;;;;;;;;14.10;52.80;;;;;;5024190;28;19941;-79
2022/04/30 12:11:01;;;;;;;;;;;14.10;50.90;;;;;;5018072;28;19975;-82
2022/04/30 12:13:28;;;;;;;;;;;14.10;49.50;;;;;;5049701;28;19921;-80
2022/04/30 12:16:04;;;;;;;;;;;14.00;47.10;;;;;;5022965;28;21702;-81
2022/04/30 12:27:03;;;;;;;;;;;13.60;49.60;;;;;;5016693;28;20051;-78
2022/04/30 12:29:30;;;;;;;;;;;13.80;51.20;;;;;;5053894;28;19943;-78
2022/04/30 12:31:56;;;;;;;;;;;14.00;49.00;;;;;;5017716;28;19925;-78
2022/04/30 12:34:22;;;;;;;;;;;14.10;49.50;;;;;;5020079;28;20012;-80
2022/04/30 12:36:52;;;;;;;;;;;13.90;46.10;;;;;;5012104;28;19940;-79
2022/04/30 12:39:21;;;;;;;;;;;13.70;47.30;;;;;;5028315;28;20027;-83
2022/04/30 12:41:46;;;;;;;;;;;13.60;46.60;;;;;;5031514;28;19933;-80
2022/04/30 12:44:12;;;;;;;;;;;13.80;46.30;;;;;;5027695;28;20377;-82
2022/04/30 12:46:41;;;;;;;;;;;13.90;48.40;;;;;;5037305;28;20043;-80
2022/04/30 12:49:06;;;;;;;;;;;14.00;50.00;;;;;;5055098;28;19992;-81
2022/04/30 12:51:32;;;;;;;;;;;14.10;46.00;;;;;;5030796;28;19965;-81
2022/04/30 12:53:58;;;;;;;;;;;14.10;46.60;;;;;;5024908;28;19921;-80
2022/04/30 12:56:24;;;;;;;;;;;14.20;48.90;;;;;;5048558;28;19920;-84
2022/04/30 12:58:49;;;;;;;;;;;14.30;48.50;;;;;;5037393;28;20340;-82
2022/04/30 13:01:15;;;;;;;;;;;14.20;48.30;;;;;;5024936;28;19913;-80
2022/04/30 13:03:41;;;;;;;;;;;14.30;49.10;;;;;;5056624;28;19968;-78
2022/04/30 13:06:06;;;;;;;;;;;14.40;46.20;;;;;;5032694;28;19920;-79
2022/04/30 13:14:00;;;;;;;;;;;14.70;48.40;;;;;;5025342;28;19920;-81
2022/04/30 13:16:26;;;;;;;;;;;14.80;46.30;;;;;;5047089;28;19921;-81
2022/04/30 13:18:52;;;;;;;;;;;14.80;48.10;;;;;;5026977;28;19913;-80
2022/04/30 13:21:17;;;;;;;;;;;14.90;47.90;;;;;;5026981;28;19913;-78
2022/04/30 13:23:43;;;;;;;;;;;14.90;46.40;;;;;;5045116;28;19921;-79
2022/04/30 13:26:11;;;;;;;;;;;14.80;46.20;;;;;;5021975;28;19968;-80
2022/04/30 13:28:36;;;;;;;;;;;14.60;46.40;;;;;;5032162;28;19970;-78
2022/04/30 13:31:02;;;;;;;;;;;14.60;45.80;;;;;;5035608;28;20062;-78
2022/04/30 13:33:27;;;;;;;;;;;14.50;46.50;;;;;;5022643;28;19916;-79
2022/04/30 13:35:53;;;;;;;;;;;14.50;47.80;;;;;;5031203;28;19947;-79
2022/04/30 13:38:18;;;;;;;;;;;14.60;46.20;;;;;;5024740;28;19913;-79
2022/04/30 13:40:44;;;;;;;;;;;14.70;46.50;;;;;;5015320;28;19941;-78
2022/04/30 13:43:09;;;;;;;;;;;14.90;46.60;;;;;;5025230;28;19921;-78
2022/04/30 13:45:35;;;;;;;;;;;15.10;45.80;;;;;;5040062;28;19913;-80
2022/04/30 13:48:02;;;;;;;;;;;15.20;45.20;;;;;;5022660;28;19920;-83
2022/04/30 13:50:27;;;;;;;;;;;15.30;46.10;;;;;;5017561;28;19921;-79
2022/04/30 13:52:53;;;;;;;;;;;15.20;45.50;;;;;;5023028;28;20546;-82
2022/04/30 13:55:18;;;;;;;;;;;15.00;45.40;;;;;;5025428;28;20333;-76
2022/04/30 13:57:44;;;;;;;;;;;14.90;45.00;;;;;;5016439;28;19967;-77
2022/04/30 14:00:16;;;;;;;;;;;14.80;45.10;;;;;;5044315;28;20633;-77
2022/04/30 14:02:41;;;;;;;;;;;14.80;44.10;;;;;;5011635;28;19968;-77
2022/04/30 14:05:08;;;;;;;;;;;14.60;44.20;;;;;;5017488;28;19925;-76
2022/04/30 14:07:33;;;;;;;;;;;14.70;44.00;;;;;;5022972;28;19913;-76
2022/04/30 14:09:59;;;;;;;;;;;14.80;44.30;;;;;;5021206;28;19924;-76
2022/04/30 14:12:24;;;;;;;;;;;15.00;44.40;;;;;;5048475;28;19913;-77
2022/04/30 14:14:55;;;;;;;;;;;15.00;43.10;;;;;;5024707;28;20618;-77
2022/04/30 14:20:06;;;;;;;;;;;14.90;44.90;;;;;;5018138;28;19924;-77
2022/04/30 14:22:34;;;;;;;;;;;15.00;43.60;;;;;;5022699;28;19913;-77
2022/04/30 14:25:00;;;;;;;;;;;15.00;44.30;;;;;;5019895;28;19924;-78
2022/04/30 14:27:26;;;;;;;;;;;15.00;43.60;;;;;;5026803;28;19924;-76
2022/04/30 14:29:51;;;;;;;;;;;15.10;43.90;;;;;;5019592;28;19913;-77
2022/04/30 14:32:19;;;;;;;;;;;15.10;44.20;;;;;;5048747;28;19924;-77
2022/04/30 14:34:44;;;;;;;;;;;15.30;43.70;;;;;;5022798;28;19913;-77
2022/04/30 14:37:10;;;;;;;;;;;15.20;43.80;;;;;;5026992;28;19927;-77
2022/04/30 14:39:36;;;;;;;;;;;15.20;44.20;;;;;;5024338;28;20361;-77
2022/04/30 14:42:02;;;;;;;;;;;15.10;44.30;;;;;;5028987;28;19977;-77
2022/04/30 14:44:28;;;;;;;;;;;15.20;44.30;;;;;;5026408;28;19917;-77
2022/04/30 14:46:54;;;;;;;;;;;15.20;44.50;;;;;;5020967;28;20057;-77
2022/04/30 14:49:19;;;;;;;;;;;15.20;44.50;;;;;;5024905;28;19925;-77
2022/04/30 14:51:47;;;;;;;;;;;15.20;42.90;;;;;;5023856;28;19922;-77
2022/04/30 14:54:12;;;;;;;;;;;15.20;43.30;;;;;;5021837;28;19921;-77
2022/04/30 14:56:38;;;;;;;;;;;15.10;44.10;;;;;;5025076;28;19919;-77
2022/04/30 14:59:03;;;;;;;;;;;15.30;43.80;;;;;;5023191;28;19913;-77
2022/04/30 15:01:29;;;;;;;;;;;15.50;45.40;;;;;;5028097;28;19921;-77
2022/04/30 15:03:55;;;;;;;;;;;15.60;45.80;;;;;;5024856;28;19928;-77
2022/04/30 15:06:20;;;;;;;;;;;15.80;43.50;;;;;;5025172;28;20267;-77
2022/04/30 15:08:46;;;;;;;;;;;15.80;42.80;;;;;;5024330;28;20404;-77